createdAt,value
2023-05-19T00:02:06.062Z,4.57
2023-05-19T00:07:11.849Z,4.55
2023-05-19T00:12:15.342Z,4.28
2023-05-19T00:17:20.268Z,4.10
2023-05-19T00:22:23.481Z,4.30
2023-05-19T00:27:26.613Z,3.88
2023-05-19T00:32:31.223Z,4.47
2023-05-19T00:37:34.526Z,4.45
2023-05-19T00:42:37.697Z,4.07
2023-05-19T00:47:42.390Z,4.30
2023-05-19T00:52:45.838Z,4.35
2023-05-19T00:57:50.591Z,5.38
2023-05-19T01:02:56.187Z,4.63
2023-05-19T01:07:59.376Z,4.78
2023-05-19T01:13:03.024Z,4.35
2023-05-19T01:18:12.489Z,4.63
2023-05-19T01:23:24.965Z,5.43
2023-05-19T01:28:34.948Z,4.72
2023-05-19T01:33:41.092Z,6.03
2023-05-19T01:38:44.491Z,5.47
2023-05-19T01:43:48.577Z,5.53
2023-05-19T01:48:53.505Z,5.47
2023-05-19T01:53:56.958Z,5.20
2023-05-19T01:59:05.328Z,4.78
2023-05-19T02:04:18.570Z,4.93
2023-05-19T02:09:24.431Z,5.28
2023-05-19T02:14:31.779Z,5.38
2023-05-19T02:19:37.751Z,5.03
2023-05-19T02:24:41.433Z,5.55
2023-05-19T02:29:44.593Z,5.38
2023-05-19T02:34:49.151Z,5.25
2023-05-19T02:39:52.649Z,5.45
2023-05-19T02:44:56.046Z,5.30
2023-05-19T02:50:00.640Z,5.18
2023-05-19T02:55:03.812Z,5.95
2023-05-19T03:00:08.305Z,5.55
2023-05-19T03:05:14.409Z,5.35
2023-05-19T03:10:17.608Z,6.18
2023-05-19T03:15:22.698Z,5.45
2023-05-19T03:20:27.240Z,5.85
2023-05-19T03:25:30.581Z,6.45
2023-05-19T03:30:34.218Z,6.32
2023-05-19T03:35:47.498Z,6.90
2023-05-19T03:40:51.722Z,6.63
2023-05-19T03:45:55.056Z,7.20
2023-05-19T03:51:18.050Z,6.40
2023-05-19T03:56:23.709Z,6.97
2023-05-19T04:01:26.902Z,6.65
2023-05-19T04:06:32.029Z,6.97
2023-05-19T04:11:36.313Z,6.32
2023-05-19T04:16:39.509Z,7.00
2023-05-19T04:21:44.031Z,5.95
2023-05-19T04:26:47.448Z,7.15
2023-05-19T04:31:53.199Z,7.22
2023-05-19T04:36:59.616Z,8.10
2023-05-19T04:42:02.974Z,7.15
2023-05-19T04:47:08.908Z,6.82
2023-05-19T04:52:14.104Z,6.03
2023-05-19T04:57:17.503Z,6.85
2023-05-19T05:02:22.182Z,7.55
2023-05-19T05:07:27.104Z,7.18
2023-05-19T05:12:30.985Z,7.00
2023-05-19T05:17:35.340Z,6.63
2023-05-19T05:22:42.040Z,7.00
2023-05-19T05:27:46.001Z,6.97
2023-05-19T05:32:50.338Z,6.65
2023-05-19T05:38:09.172Z,7.65
2023-05-19T05:43:13.517Z,6.97
2023-05-19T05:48:23.468Z,6.40
2023-05-19T05:53:32.117Z,5.45
2023-05-19T05:58:37.801Z,5.10
2023-05-19T06:03:42.164Z,5.38
2023-05-19T06:08:47.977Z,4.80
2023-05-19T06:13:51.898Z,4.65
2023-05-19T06:19:13.508Z,4.43
2023-05-19T06:24:18.163Z,4.28
2023-05-19T06:29:21.407Z,4.72
2023-05-19T06:34:26.914Z,4.43
2023-05-19T06:39:31.743Z,4.05
2023-05-19T06:44:36.345Z,3.70
2023-05-19T06:49:39.650Z,3.78
2023-05-19T06:54:45.002Z,4.38
2023-05-19T06:59:48.246Z,4.13
2023-05-19T07:04:52.809Z,4.10
2023-05-19T07:09:58.977Z,4.00
2023-05-19T07:15:03.825Z,4.40
2023-05-19T07:20:10.067Z,4.25
2023-05-19T07:25:14.853Z,4.13
2023-05-19T07:30:18.115Z,3.80
2023-05-19T07:35:22.625Z,4.43
2023-05-19T07:40:29.734Z,3.95
2023-05-19T07:45:33.171Z,4.05
2023-05-19T07:50:37.137Z,4.30
2023-05-19T07:55:41.605Z,4.18
2023-05-19T08:00:45.980Z,3.70
2023-05-19T08:05:49.422Z,3.70
2023-05-19T08:10:53.999Z,3.33
2023-05-19T08:15:59.857Z,3.38
2023-05-19T08:21:03.194Z,3.05
2023-05-19T08:26:09.773Z,3.70
2023-05-19T08:31:12.953Z,2.67
2023-05-19T08:36:16.420Z,3.38
2023-05-19T08:41:21.618Z,2.70
2023-05-19T08:46:26.190Z,2.40
2023-05-19T08:51:34.780Z,2.80
2023-05-19T08:56:39.372Z,2.40
2023-05-19T09:01:43.683Z,2.42
2023-05-19T09:06:46.830Z,2.13
2023-05-19T09:11:51.538Z,1.73
2023-05-19T09:16:55.011Z,2.08
2023-05-19T09:22:03.226Z,1.77
2023-05-19T09:27:07.894Z,1.95
2023-05-19T09:32:11.115Z,2.05
2023-05-19T09:37:14.377Z,1.77
2023-05-19T09:42:24.965Z,2.25
2023-05-19T09:47:29.047Z,1.80
2023-05-19T09:52:32.712Z,2.15
2023-05-19T09:57:38.289Z,1.92
2023-05-19T10:02:42.428Z,1.80
2023-05-19T10:07:48.606Z,1.98
2023-05-19T10:12:55.958Z,1.80
2023-05-19T10:18:00.398Z,1.92
2023-05-19T10:23:04.174Z,1.70
2023-05-19T10:28:10.777Z,2.15
2023-05-19T10:33:17.288Z,2.00
2023-05-19T10:38:25.442Z,2.00
2023-05-19T10:43:37.598Z,1.88
2023-05-19T10:48:45.019Z,1.80
2023-05-19T10:53:50.044Z,2.42
2023-05-19T10:58:54.636Z,1.90
2023-05-19T11:03:58.095Z,2.00
2023-05-19T11:09:02.012Z,1.75
2023-05-19T11:14:06.619Z,2.15
2023-05-19T11:19:10.125Z,2.33
2023-05-19T11:24:34.067Z,1.73
2023-05-19T11:29:38.874Z,1.80
2023-05-19T11:34:42.152Z,1.92
2023-05-19T11:39:46.621Z,2.47
2023-05-19T11:44:51.308Z,1.67
2023-05-19T11:49:56.679Z,2.13
2023-05-19T11:55:01.486Z,2.35
2023-05-19T12:00:09.159Z,2.17
2023-05-19T12:05:19.066Z,2.00
2023-05-19T12:10:23.020Z,1.77
2023-05-19T12:15:27.695Z,1.90
2023-05-19T12:20:32.590Z,1.88
2023-05-19T12:25:36.396Z,1.73
2023-05-19T12:30:41.474Z,1.90
2023-05-19T12:35:44.689Z,2.22
2023-05-19T12:40:47.885Z,2.20
2023-05-19T12:45:52.752Z,1.90
2023-05-19T12:50:56.088Z,2.08
2023-05-19T12:55:59.384Z,2.17
2023-05-19T13:01:03.938Z,1.92
2023-05-19T13:06:07.194Z,2.25
2023-05-19T13:11:10.365Z,2.60
2023-05-19T13:16:14.974Z,2.28
2023-05-19T13:21:18.265Z,1.98
2023-05-19T13:26:21.406Z,1.67
2023-05-19T13:31:26.034Z,1.77
2023-05-19T13:36:29.233Z,2.55
2023-05-19T13:41:32.455Z,2.25
2023-05-19T13:46:45.632Z,2.22
2023-05-19T13:51:50.052Z,1.70
2023-05-19T13:56:53.298Z,1.70
2023-05-19T14:01:57.905Z,2.10
2023-05-19T14:07:01.074Z,1.77
2023-05-19T14:12:04.358Z,1.70
2023-05-19T14:17:08.904Z,2.95
2023-05-19T14:22:13.391Z,1.67
2023-05-19T14:27:16.729Z,1.38
2023-05-19T14:32:21.639Z,2.08
2023-05-19T14:37:26.595Z,2.05
2023-05-19T14:42:29.767Z,1.80
2023-05-19T14:47:34.350Z,1.90
2023-05-19T14:52:37.506Z,1.90
2023-05-19T14:57:40.976Z,1.35
2023-05-19T15:02:46.169Z,1.80
2023-05-19T15:07:49.473Z,1.65
2023-05-19T15:12:53.668Z,2.15
2023-05-19T15:17:58.265Z,2.22
2023-05-19T15:23:01.449Z,1.90
2023-05-19T15:28:04.786Z,1.80
2023-05-19T15:33:09.734Z,2.10
2023-05-19T15:38:13.091Z,1.33
2023-05-19T15:43:17.335Z,2.13
2023-05-19T15:48:22.034Z,1.80
2023-05-19T15:53:25.197Z,1.80
2023-05-19T15:58:28.475Z,1.90
2023-05-19T16:03:34.204Z,2.17
2023-05-19T16:08:38.036Z,2.10
2023-05-19T16:13:41.150Z,1.90
2023-05-19T16:18:48.512Z,1.77
2023-05-19T16:23:51.709Z,1.98
2023-05-19T16:28:54.834Z,1.50
2023-05-19T16:33:59.374Z,1.70
2023-05-19T16:39:02.569Z,1.55
2023-05-19T16:44:05.876Z,1.90
2023-05-19T16:49:10.470Z,1.92
2023-05-19T16:54:13.607Z,1.70
2023-05-19T16:59:17.250Z,1.75
2023-05-19T17:04:21.761Z,1.70
2023-05-19T17:09:26.404Z,1.63
2023-05-19T17:14:29.538Z,2.05
2023-05-19T17:19:34.114Z,2.10
2023-05-19T17:24:37.344Z,1.52
2023-05-19T17:29:40.546Z,1.50
2023-05-19T17:34:48.114Z,1.98
2023-05-19T17:39:51.377Z,1.50
2023-05-19T17:44:54.479Z,1.83
2023-05-19T17:49:59.046Z,1.70
2023-05-19T17:55:02.585Z,2.75
2023-05-19T18:00:06.592Z,1.50
2023-05-19T18:05:11.949Z,1.40
2023-05-19T18:10:16.185Z,1.50
2023-05-19T18:15:19.377Z,1.90
2023-05-19T18:20:24.166Z,1.55
2023-05-19T18:25:27.336Z,1.38
2023-05-19T18:30:30.559Z,1.70
2023-05-19T18:35:35.667Z,1.50
2023-05-19T18:40:38.902Z,1.45
2023-05-19T18:45:42.079Z,1.45
2023-05-19T18:50:46.919Z,1.90
2023-05-19T18:55:50.109Z,1.58
2023-05-19T19:00:55.555Z,2.17
2023-05-19T19:06:00.536Z,1.95
2023-05-19T19:11:05.146Z,1.80
2023-05-19T19:16:08.494Z,2.08
2023-05-19T19:21:13.015Z,1.65
2023-05-19T19:26:16.251Z,2.05
2023-05-19T19:31:19.618Z,1.80
2023-05-19T19:36:24.098Z,1.60
2023-05-19T19:41:29.791Z,1.80
2023-05-19T19:46:32.998Z,1.52
2023-05-19T19:51:37.552Z,1.73
2023-05-19T19:56:40.706Z,1.48
2023-05-19T20:01:44.037Z,1.40
2023-05-19T20:06:49.570Z,1.55
2023-05-19T20:11:52.844Z,1.70
2023-05-19T20:16:56.035Z,1.42
2023-05-19T20:22:05.576Z,1.67
2023-05-19T20:27:09.451Z,1.50
2023-05-19T20:32:12.767Z,1.40
2023-05-19T20:37:17.482Z,1.55
2023-05-19T20:42:20.682Z,1.88
2023-05-19T20:47:23.859Z,1.77
2023-05-19T20:52:28.589Z,2.15
2023-05-19T20:57:31.695Z,2.42
2023-05-19T21:02:35.084Z,1.60
2023-05-19T21:07:39.663Z,1.77
2023-05-19T21:12:42.769Z,1.38
2023-05-19T21:17:46.647Z,1.75
2023-05-19T21:22:51.380Z,1.55
2023-05-19T21:27:56.019Z,1.48
2023-05-19T21:32:59.396Z,1.80
2023-05-19T21:38:15.585Z,1.90
2023-05-19T21:43:26.002Z,2.38
2023-05-19T21:48:29.168Z,2.00
2023-05-19T21:53:33.705Z,2.50
2023-05-19T21:58:36.815Z,2.40
2023-05-19T22:03:40.291Z,2.50
2023-05-19T22:08:44.943Z,2.53
2023-05-19T22:13:48.076Z,2.50
2023-05-19T22:18:51.226Z,2.33
2023-05-19T22:23:55.738Z,2.20
2023-05-19T22:28:58.877Z,2.83
2023-05-19T22:34:02.029Z,2.70
2023-05-19T22:39:06.613Z,2.30
2023-05-19T22:44:11.384Z,2.78
2023-05-19T22:49:14.538Z,2.95
2023-05-19T22:54:19.062Z,3.08
2023-05-19T22:59:22.303Z,2.80
2023-05-19T23:04:25.586Z,3.33
2023-05-19T23:09:30.632Z,3.00
2023-05-19T23:14:33.804Z,2.95
2023-05-19T23:19:36.971Z,2.90
2023-05-19T23:24:41.515Z,2.80
2023-05-19T23:29:47.878Z,3.03
2023-05-19T23:34:51.104Z,3.05
2023-05-19T23:39:55.606Z,2.67
2023-05-19T23:44:58.805Z,2.65
2023-05-19T23:50:01.963Z,2.65
2023-05-19T23:55:07.432Z,3.30
